Language: 


Des rapports , des résumés tant et plus, au choix de chacun....


Données Historiques de Météogheer
Journalier Rapport pour Février 22, 2018 Unitée:  Les deux    Impériale   Métrique
Suivant Jour »
Journalier Hebdomadaire Mensuel Annuel Sur mesure
  Max: Min: Moyenne:
Température: 43.5 °F /  6.4 °C 28.6 °F /  -1.9 °C 34.9 °F /  1.6 °C
Point de rosée: 30.2 °F /  -1.0 °C 23 °F /  -5.0 °C 25.3 °F /  -3.7 °C
Humidité: 89% 43% 71%
Vent: 18.6mph /  29.9km/h - 8mph /  12.8km/h
Rafales: 19.5mph /  31.4km/h - -
Vent- - NE
Pression: 30.2 in /  1022.9 hPa 30.1 in /  1018.8 hPa -
Pluie: 0 in /  0.0 mm    
Historical Graphs
 
 
Données tabulaires pour Février 22, 2018
Heure Température Point de rosée Pression Vent Vent Rafales Humidité Pluie Taux (Horaire) Conditions
00:04 32.7 °F /  0.4 °C 30.2 °F /  -1.0 °C 30.2in /  1022.9hPa NE 7.8mph /  12.6km/h 8.1mph /  13.0km/h 88% 0in /  0.0mm
00:09 32.7 °F /  0.4 °C 30.2 °F /  -1.0 °C 30.2in /  1022.9hPa NE 7.6mph /  12.2km/h 7.8mph /  12.6km/h 88% 0in /  0.0mm
00:14 32.7 °F /  0.4 °C 30.2 °F /  -1.0 °C 30.2in /  1022.9hPa NE 5.6mph /  9.0km/h 7.8mph /  12.6km/h 88% 0in /  0.0mm
00:19 32.5 °F /  0.3 °C 30.2 °F /  -1.0 °C 30.2in /  1022.9hPa NNE 8.1mph /  13.0km/h 8.1mph /  13.0km/h 88% 0in /  0.0mm
00:24 32.5 °F /  0.3 °C 30.2 °F /  -1.0 °C 30.2in /  1022.9hPa NE 6mph /  9.7km/h 8.1mph /  13.0km/h 88% 0in /  0.0mm
00:29 32.4 °F /  0.2 °C 30.2 °F /  -1.0 °C 30.2in /  1022.9hPa NNE 6.5mph /  10.5km/h 8.7mph /  14.0km/h 88% 0in /  0.0mm
00:34 32.2 °F /  0.1 °C 30.2 °F /  -1.0 °C 30.2in /  1022.9hPa NNE 7.2mph /  11.6km/h 8.7mph /  14.0km/h 88% 0in /  0.0mm
00:39 32.2 °F /  0.1 °C 30.2 °F /  -1.0 °C 30.2in /  1022.9hPa NNE 7.2mph /  11.6km/h 7.2mph /  11.6km/h 88% 0in /  0.0mm
00:44 32 °F /  0.0 °C 26.6 °F /  -3.0 °C 30.2in /  1022.9hPa NNE 5.8mph /  9.3km/h 8.1mph /  13.0km/h 88% 0in /  0.0mm
00:49 31.8 °F /  -0.1 °C 26.6 °F /  -3.0 °C 30.2in /  1022.9hPa NE 5.6mph /  9.0km/h 8.1mph /  13.0km/h 88% 0in /  0.0mm
00:54 31.8 °F /  -0.1 °C 26.6 °F /  -3.0 °C 30.2in /  1022.9hPa NNE 6.3mph /  10.1km/h 7.8mph /  12.6km/h 88% 0in /  0.0mm
00:59 31.6 °F /  -0.2 °C 26.6 °F /  -3.0 °C 30.2in /  1022.9hPa NNE 6.5mph /  10.5km/h 8.5mph /  13.7km/h 88% 0in /  0.0mm
01:04 31.6 °F /  -0.2 °C 26.6 °F /  -3.0 °C 30.2in /  1022.9hPa NE 4.3mph /  6.9km/h 8.5mph /  13.7km/h 88% 0in /  0.0mm
01:09 31.5 °F /  -0.3 °C 26.6 °F /  -3.0 °C 30.2in /  1022.9hPa NNE 7.8mph /  12.6km/h 8.1mph /  13.0km/h 89% 0in /  0.0mm
01:14 31.5 °F /  -0.3 °C 26.6 °F /  -3.0 °C 30.2in /  1022.9hPa NNE 2mph /  3.2km/h 9.2mph /  14.8km/h 89% 0in /  0.0mm
01:19 31.5 °F /  -0.3 °C 26.6 °F /  -3.0 °C 30.2in /  1022.9hPa NE 8.5mph /  13.7km/h 9.2mph /  14.8km/h 89% 0in /  0.0mm
01:24 31.5 °F /  -0.3 °C 26.6 °F /  -3.0 °C 30.2in /  1022.9hPa NNE 5.8mph /  9.3km/h 8.5mph /  13.7km/h 89% 0in /  0.0mm
01:29 31.3 °F /  -0.4 °C 26.6 °F /  -3.0 °C 30.2in /  1022.9hPa NNE 7.8mph /  12.6km/h 8.5mph /  13.7km/h 89% 0in /  0.0mm
01:34 31.3 °F /  -0.4 °C 26.6 °F /  -3.0 °C 30.2in /  1022.9hPa NE 6mph /  9.7km/h 8.5mph /  13.7km/h 89% 0in /  0.0mm
01:40 31.3 °F /  -0.4 °C 26.6 °F /  -3.0 °C 30.2in /  1022.9hPa NNE 8.1mph /  13.0km/h 8.5mph /  13.7km/h 89% 0in /  0.0mm
01:45 31.3 °F /  -0.4 °C 26.6 °F /  -3.0 °C 30.2in /  1021.9hPa NE 5.8mph /  9.3km/h 8.1mph /  13.0km/h 89% 0in /  0.0mm
01:50 31.1 °F /  -0.5 °C 26.6 °F /  -3.0 °C 30.2in /  1021.9hPa NE 4.3mph /  6.9km/h 8.1mph /  13.0km/h 89% 0in /  0.0mm
01:55 31.1 °F /  -0.5 °C 26.6 °F /  -3.0 °C 30.2in /  1021.9hPa NNE 5.6mph /  9.0km/h 7.4mph /  11.9km/h 89% 0in /  0.0mm
02:00 31.1 °F /  -0.5 °C 26.6 °F /  -3.0 °C 30.2in /  1021.9hPa NNE 5.6mph /  9.0km/h 5.6mph /  9.0km/h 89% 0in /  0.0mm
02:05 31.1 °F /  -0.5 °C 26.6 °F /  -3.0 °C 30.2in /  1021.9hPa NNE 6.5mph /  10.5km/h 6.5mph /  10.5km/h 89% 0in /  0.0mm
02:10 30.9 °F /  -0.6 °C 26.6 °F /  -3.0 °C 30.2in /  1021.9hPa NNE 5.4mph /  8.7km/h 6.5mph /  10.5km/h 89% 0in /  0.0mm
02:15 30.9 °F /  -0.6 °C 26.6 °F /  -3.0 °C 30.2in /  1021.9hPa NNE 5.4mph /  8.7km/h 6.5mph /  10.5km/h 89% 0in /  0.0mm
02:20 30.7 °F /  -0.7 °C 26.6 °F /  -3.0 °C 30.2in /  1021.9hPa NE 6mph /  9.7km/h 6mph /  9.7km/h 89% 0in /  0.0mm
02:25 30.7 °F /  -0.7 °C 26.6 °F /  -3.0 °C 30.2in /  1021.9hPa NNE 7.4mph /  11.9km/h 7.4mph /  11.9km/h 89% 0in /  0.0mm
02:30 30.6 °F /  -0.8 °C 26.6 °F /  -3.0 °C 30.2in /  1021.9hPa NE 4.3mph /  6.9km/h 7.4mph /  11.9km/h 89% 0in /  0.0mm
02:35 30.6 °F /  -0.8 °C 26.6 °F /  -3.0 °C 30.2in /  1021.9hPa NE 4.3mph /  6.9km/h 7.4mph /  11.9km/h 89% 0in /  0.0mm
02:40 30.6 °F /  -0.8 °C 26.6 °F /  -3.0 °C 30.2in /  1021.9hPa NE 4.3mph /  6.9km/h 4.3mph /  6.9km/h 89% 0in /  0.0mm
02:45 30.6 °F /  -0.8 °C 26.6 °F /  -3.0 °C 30.2in /  1021.9hPa NE 4.3mph /  6.9km/h 4.3mph /  6.9km/h 89% 0in /  0.0mm
02:50 30.6 °F /  -0.8 °C 26.6 °F /  -3.0 °C 30.2in /  1021.9hPa NE 4.3mph /  6.9km/h 4.3mph /  6.9km/h 89% 0in /  0.0mm
02:55 30.4 °F /  -0.9 °C 26.6 °F /  -3.0 °C 30.2in /  1021.9hPa NNE 6mph /  9.7km/h 6mph /  9.7km/h 89% 0in /  0.0mm
03:00 30.4 °F /  -0.9 °C 26.6 °F /  -3.0 °C 30.2in /  1021.9hPa NNE 6mph /  9.7km/h 6mph /  9.7km/h 89% 0in /  0.0mm
03:05 30.2 °F /  -1.0 °C 26.6 °F /  -3.0 °C 30.2in /  1021.9hPa NNE 6mph /  9.7km/h 6mph /  9.7km/h 89% 0in /  0.0mm
03:10 30.2 °F /  -1.0 °C 26.6 °F /  -3.0 °C 30.2in /  1021.9hPa NE 5.4mph /  8.7km/h 6.3mph /  10.1km/h 89% 0in /  0.0mm
03:15 30.2 °F /  -1.0 °C 26.6 °F /  -3.0 °C 30.2in /  1020.9hPa NNE 6mph /  9.7km/h 6.3mph /  10.1km/h 89% 0in /  0.0mm
03:20 30.2 °F /  -1.0 °C 26.6 °F /  -3.0 °C 30.2in /  1020.9hPa NE 6mph /  9.7km/h 6mph /  9.7km/h 89% 0in /  0.0mm
03:25 30.2 °F /  -1.0 °C 26.6 °F /  -3.0 °C 30.2in /  1020.9hPa ENE 6.5mph /  10.5km/h 7.6mph /  12.2km/h 89% 0in /  0.0mm
03:30 30.2 °F /  -1.0 °C 26.6 °F /  -3.0 °C 30.2in /  1020.9hPa NNE 6.3mph /  10.1km/h 7.6mph /  12.2km/h 89% 0in /  0.0mm
03:35 30 °F /  -1.1 °C 26.6 °F /  -3.0 °C 30.2in /  1020.9hPa NNE 5.8mph /  9.3km/h 7.2mph /  11.6km/h 89% 0in /  0.0mm
03:40 30 °F /  -1.1 °C 26.6 °F /  -3.0 °C 30.2in /  1020.9hPa NNE 5.8mph /  9.3km/h 6.3mph /  10.1km/h 89% 0in /  0.0mm
03:45 29.8 °F /  -1.2 °C 26.6 °F /  -3.0 °C 30.2in /  1020.9hPa NNE 5.8mph /  9.3km/h 5.8mph /  9.3km/h 89% 0in /  0.0mm
03:50 29.8 °F /  -1.2 °C 26.6 °F /  -3.0 °C 30.2in /  1020.9hPa NE 6mph /  9.7km/h 6mph /  9.7km/h 89% 0in /  0.0mm
03:55 29.7 °F /  -1.3 °C 26.6 °F /  -3.0 °C 30.2in /  1020.9hPa NE 6mph /  9.7km/h 6mph /  9.7km/h 89% 0in /  0.0mm
04:00 29.7 °F /  -1.3 °C 26.6 °F /  -3.0 °C 30.2in /  1020.9hPa NE 6mph /  9.7km/h 6mph /  9.7km/h 89% 0in /  0.0mm
04:05 29.7 °F /  -1.3 °C 26.6 °F /  -3.0 °C 30.2in /  1020.9hPa NE 4.3mph /  6.9km/h 6mph /  9.7km/h 89% 0in /  0.0mm
04:10 29.7 °F /  -1.3 °C 26.6 °F /  -3.0 °C 30.2in /  1020.9hPa NNE 4.9mph /  7.9km/h 4.9mph /  7.9km/h 89% 0in /  0.0mm
04:15 29.5 °F /  -1.4 °C 26.6 °F /  -3.0 °C 30.2in /  1020.9hPa NNE 6mph /  9.7km/h 6mph /  9.7km/h 89% 0in /  0.0mm
04:20 29.5 °F /  -1.4 °C 26.6 °F /  -3.0 °C 30.2in /  1020.9hPa NE 5.8mph /  9.3km/h 6mph /  9.7km/h 89% 0in /  0.0mm
04:25 29.5 °F /  -1.4 °C 26.6 °F /  -3.0 °C 30.2in /  1020.9hPa NE 5.8mph /  9.3km/h 6mph /  9.7km/h 89% 0in /  0.0mm
04:30 29.5 °F /  -1.4 °C 26.6 °F /  -3.0 °C 30.2in /  1020.9hPa NE 5.8mph /  9.3km/h 5.8mph /  9.3km/h 89% 0in /  0.0mm
04:36 29.5 °F /  -1.4 °C 26.6 °F /  -3.0 °C 30.2in /  1020.9hPa NNE 5.8mph /  9.3km/h 5.8mph /  9.3km/h 89% 0in /  0.0mm
04:41 29.5 °F /  -1.4 °C 26.6 °F /  -3.0 °C 30.2in /  1020.9hPa NE 7.8mph /  12.6km/h 7.8mph /  12.6km/h 89% 0in /  0.0mm
04:46 29.3 °F /  -1.5 °C 24.8 °F /  -4.0 °C 30.2in /  1020.9hPa ENE 7.2mph /  11.6km/h 8.7mph /  14.0km/h 89% 0in /  0.0mm
04:51 29.3 °F /  -1.5 °C 24.8 °F /  -4.0 °C 30.2in /  1020.9hPa ENE 7.2mph /  11.6km/h 8.7mph /  14.0km/h 89% 0in /  0.0mm
04:56 29.3 °F /  -1.5 °C 24.8 °F /  -4.0 °C 30.2in /  1020.9hPa ENE 7.2mph /  11.6km/h 8.7mph /  14.0km/h 89% 0in /  0.0mm
05:01 29.3 °F /  -1.5 °C 24.8 °F /  -4.0 °C 30.2in /  1020.9hPa ENE 7.2mph /  11.6km/h 7.2mph /  11.6km/h 89% 0in /  0.0mm
05:06 29.3 °F /  -1.5 °C 24.8 °F /  -4.0 °C 30.2in /  1020.9hPa NE 6.3mph /  10.1km/h 7.2mph /  11.6km/h 89% 0in /  0.0mm
05:11 29.3 °F /  -1.5 °C 24.8 °F /  -4.0 °C 30.2in /  1020.9hPa NE 6.3mph /  10.1km/h 7.2mph /  11.6km/h 89% 0in /  0.0mm
05:16 29.1 °F /  -1.6 °C 24.8 °F /  -4.0 °C 30.2in /  1020.9hPa NE 6.3mph /  10.1km/h 6.3mph /  10.1km/h 89% 0in /  0.0mm
05:21 29.1 °F /  -1.6 °C 24.8 °F /  -4.0 °C 30.2in /  1020.9hPa NE 6.3mph /  10.1km/h 6.3mph /  10.1km/h 89% 0in /  0.0mm
05:26 29.1 °F /  -1.6 °C 24.8 °F /  -4.0 °C 30.2in /  1020.9hPa NE 6.3mph /  10.1km/h 6.3mph /  10.1km/h 89% 0in /  0.0mm
05:31 29.1 °F /  -1.6 °C 24.8 °F /  -4.0 °C 30.2in /  1020.9hPa NE 6.3mph /  10.1km/h 6.3mph /  10.1km/h 89% 0in /  0.0mm
05:36 29.1 °F /  -1.6 °C 24.8 °F /  -4.0 °C 30.2in /  1020.9hPa NE 6.3mph /  10.1km/h 6.3mph /  10.1km/h 89% 0in /  0.0mm
05:41 29.1 °F /  -1.6 °C 24.8 °F /  -4.0 °C 30.2in /  1020.9hPa NE 6.3mph /  10.1km/h 6.3mph /  10.1km/h 89% 0in /  0.0mm
05:46 29.1 °F /  -1.6 °C 24.8 °F /  -4.0 °C 30.1in /  1019.9hPa NE 6.3mph /  10.1km/h 6.3mph /  10.1km/h 89% 0in /  0.0mm
05:51 29.1 °F /  -1.6 °C 24.8 °F /  -4.0 °C 30.1in /  1019.9hPa NE 6.3mph /  10.1km/h 6.3mph /  10.1km/h 89% 0in /  0.0mm
05:56 29.1 °F /  -1.6 °C 24.8 °F /  -4.0 °C 30.1in /  1019.9hPa NE 6.3mph /  10.1km/h 6.3mph /  10.1km/h 89% 0in /  0.0mm
06:01 28.9 °F /  -1.7 °C 24.8 °F /  -4.0 °C 30.2in /  1020.9hPa NE 6.3mph /  10.1km/h 6.3mph /  10.1km/h 89% 0in /  0.0mm
06:06 28.9 °F /  -1.7 °C 24.8 °F /  -4.0 °C 30.2in /  1020.9hPa NE 6.3mph /  10.1km/h 6.3mph /  10.1km/h 89% 0in /  0.0mm
06:11 28.9 °F /  -1.7 °C 24.8 °F /  -4.0 °C 30.2in /  1020.9hPa NE 6.3mph /  10.1km/h 6.3mph /  10.1km/h 89% 0in /  0.0mm
06:16 28.9 °F /  -1.7 °C 24.8 °F /  -4.0 °C 30.2in /  1020.9hPa NE 8.7mph /  14.0km/h 8.7mph /  14.0km/h 88% 0in /  0.0mm
06:21 28.9 °F /  -1.7 °C 24.8 °F /  -4.0 °C 30.2in /  1020.9hPa NE 7.6mph /  12.2km/h 8.7mph /  14.0km/h 88% 0in /  0.0mm
06:26 29.1 °F /  -1.6 °C 24.8 °F /  -4.0 °C 30.2in /  1020.9hPa NE 7.4mph /  11.9km/h 8.7mph /  14.0km/h 89% 0in /  0.0mm
06:31 29.1 °F /  -1.6 °C 24.8 °F /  -4.0 °C 30.2in /  1020.9hPa NE 7.4mph /  11.9km/h 7.6mph /  12.2km/h 88% 0in /  0.0mm
06:36 29.1 °F /  -1.6 °C 24.8 °F /  -4.0 °C 30.2in /  1020.9hPa NE 7.4mph /  11.9km/h 7.4mph /  11.9km/h 88% 0in /  0.0mm
06:42 28.9 °F /  -1.7 °C 24.8 °F /  -4.0 °C 30.2in /  1020.9hPa NE 7.4mph /  11.9km/h 7.4mph /  11.9km/h 88% 0in /  0.0mm
06:47 28.9 °F /  -1.7 °C 24.8 °F /  -4.0 °C 30.2in /  1020.9hPa NE 7.4mph /  11.9km/h 7.4mph /  11.9km/h 88% 0in /  0.0mm
06:52 28.9 °F /  -1.7 °C 24.8 °F /  -4.0 °C 30.2in /  1020.9hPa NE 7.4mph /  11.9km/h 7.4mph /  11.9km/h 89% 0in /  0.0mm
06:57 28.9 °F /  -1.7 °C 24.8 °F /  -4.0 °C 30.2in /  1020.9hPa NE 7.4mph /  11.9km/h 7.4mph /  11.9km/h 89% 0in /  0.0mm
07:02 28.9 °F /  -1.7 °C 24.8 °F /  -4.0 °C 30.2in /  1020.9hPa NE 7.4mph /  11.9km/h 7.4mph /  11.9km/h 89% 0in /  0.0mm
07:07 28.9 °F /  -1.7 °C 24.8 °F /  -4.0 °C 30.2in /  1020.9hPa NE 7.4mph /  11.9km/h 7.4mph /  11.9km/h 88% 0in /  0.0mm
07:12 28.8 °F /  -1.8 °C 24.8 °F /  -4.0 °C 30.2in /  1020.9hPa NE 7.4mph /  11.9km/h 7.4mph /  11.9km/h 88% 0in /  0.0mm
07:17 28.8 °F /  -1.8 °C 24.8 °F /  -4.0 °C 30.2in /  1020.9hPa NE 7.4mph /  11.9km/h 7.4mph /  11.9km/h 88% 0in /  0.0mm
07:22 28.8 °F /  -1.8 °C 24.8 °F /  -4.0 °C 30.2in /  1020.9hPa NNE 6mph /  9.7km/h 6mph /  9.7km/h 88% 0in /  0.0mm
07:27 28.8 °F /  -1.8 °C 24.8 °F /  -4.0 °C 30.2in /  1020.9hPa NNE 6mph /  9.7km/h 6mph /  9.7km/h 89% 0in /  0.0mm
07:32 28.6 °F /  -1.9 °C 24.8 °F /  -4.0 °C 30.2in /  1020.9hPa NNE 6mph /  9.7km/h 6mph /  9.7km/h 88% 0in /  0.0mm
07:37 28.6 °F /  -1.9 °C 24.8 °F /  -4.0 °C 30.2in /  1020.9hPa NNE 6mph /  9.7km/h 6mph /  9.7km/h 88% 0in /  0.0mm
07:42 28.6 °F /  -1.9 °C 24.8 °F /  -4.0 °C 30.2in /  1020.9hPa NNE 6mph /  9.7km/h 6mph /  9.7km/h 88% 0in /  0.0mm
07:47 28.6 °F /  -1.9 °C 24.8 °F /  -4.0 °C 30.2in /  1020.9hPa NE 5.4mph /  8.7km/h 5.4mph /  8.7km/h 88% 0in /  0.0mm
07:52 28.6 °F /  -1.9 °C 24.8 °F /  -4.0 °C 30.2in /  1020.9hPa NE 6.5mph /  10.5km/h 9.2mph /  14.8km/h 88% 0in /  0.0mm
07:57 28.6 °F /  -1.9 °C 24.8 °F /  -4.0 °C 30.2in /  1020.9hPa NE 6.5mph /  10.5km/h 9.2mph /  14.8km/h 88% 0in /  0.0mm
08:02 28.6 °F /  -1.9 °C 24.8 °F /  -4.0 °C 30.2in /  1020.9hPa NE 5.8mph /  9.3km/h 6.5mph /  10.5km/h 88% 0in /  0.0mm
08:07 28.6 °F /  -1.9 °C 24.8 °F /  -4.0 °C 30.2in /  1020.9hPa NE 6.3mph /  10.1km/h 6.5mph /  10.5km/h 88% 0in /  0.0mm
08:12 28.6 °F /  -1.9 °C 24.8 °F /  -4.0 °C 30.2in /  1020.9hPa NE 6.9mph /  11.1km/h 9.6mph /  15.4km/h 88% 0in /  0.0mm
08:17 28.8 °F /  -1.8 °C 24.8 °F /  -4.0 °C 30.2in /  1020.9hPa NNE 4.3mph /  6.9km/h 9.6mph /  15.4km/h 88% 0in /  0.0mm
08:22 28.8 °F /  -1.8 °C 24.8 °F /  -4.0 °C 30.2in /  1020.9hPa NNE 4.3mph /  6.9km/h 6.9mph /  11.1km/h 88% 0in /  0.0mm
08:27 28.9 °F /  -1.7 °C 24.8 °F /  -4.0 °C 30.2in /  1020.9hPa NNE 8.1mph /  13.0km/h 8.1mph /  13.0km/h 88% 0in /  0.0mm
08:32 29.1 °F /  -1.6 °C 24.8 °F /  -4.0 °C 30.2in /  1021.9hPa NNE 5.6mph /  9.0km/h 8.1mph /  13.0km/h 88% 0in /  0.0mm
08:38 29.3 °F /  -1.5 °C 24.8 °F /  -4.0 °C 30.2in /  1021.9hPa NNE 6.5mph /  10.5km/h 8.1mph /  13.0km/h 88% 0in /  0.0mm
08:43 29.5 °F /  -1.4 °C 24.8 °F /  -4.0 °C 30.2in /  1021.9hPa NNE 7.6mph /  12.2km/h 8.1mph /  13.0km/h 88% 0in /  0.0mm
08:48 29.8 °F /  -1.2 °C 24.8 °F /  -4.0 °C 30.2in /  1021.9hPa North 7.2mph /  11.6km/h 7.6mph /  12.2km/h 88% 0in /  0.0mm
08:53 30 °F /  -1.1 °C 26.6 °F /  -3.0 °C 30.2in /  1021.9hPa NE 5.4mph /  8.7km/h 8.7mph /  14.0km/h 88% 0in /  0.0mm
08:58 30.2 °F /  -1.0 °C 26.6 °F /  -3.0 °C 30.2in /  1021.9hPa NE 7.8mph /  12.6km/h 8.7mph /  14.0km/h 87% 0in /  0.0mm
09:03 30.6 °F /  -0.8 °C 24.8 °F /  -4.0 °C 30.2in /  1021.9hPa ENE 6mph /  9.7km/h 8.5mph /  13.7km/h 86% 0in /  0.0mm
09:08 30.7 °F /  -0.7 °C 26.6 °F /  -3.0 °C 30.2in /  1021.9hPa NNE 7.6mph /  12.2km/h 8.5mph /  13.7km/h 86% 0in /  0.0mm
09:13 31.1 °F /  -0.5 °C 26.6 °F /  -3.0 °C 30.2in /  1021.9hPa NE 5.6mph /  9.0km/h 7.8mph /  12.6km/h 85% 0in /  0.0mm
09:18 31.5 °F /  -0.3 °C 26.6 °F /  -3.0 °C 30.2in /  1021.9hPa ENE 7.2mph /  11.6km/h 7.6mph /  12.2km/h 85% 0in /  0.0mm
09:23 31.6 °F /  -0.2 °C 26.6 °F /  -3.0 °C 30.2in /  1021.9hPa East 6.5mph /  10.5km/h 8.5mph /  13.7km/h 84% 0in /  0.0mm
09:28 31.8 °F /  -0.1 °C 26.6 °F /  -3.0 °C 30.2in /  1021.9hPa ENE 7.8mph /  12.6km/h 9.2mph /  14.8km/h 83% 0in /  0.0mm
09:33 32.2 °F /  0.1 °C 28.4 °F /  -2.0 °C 30.2in /  1021.9hPa ENE 10.1mph /  16.3km/h 10.1mph /  16.3km/h 82% 0in /  0.0mm
09:38 32.2 °F /  0.1 °C 26.6 °F /  -3.0 °C 30.2in /  1021.9hPa NE 6.7mph /  10.8km/h 10.7mph /  17.2km/h 81% 0in /  0.0mm
09:43 32.5 °F /  0.3 °C 28.4 °F /  -2.0 °C 30.2in /  1021.9hPa NE 8.5mph /  13.7km/h 10.7mph /  17.2km/h 80% 0in /  0.0mm
09:48 32.7 °F /  0.4 °C 26.6 °F /  -3.0 °C 30.2in /  1021.9hPa East 7.8mph /  12.6km/h 10.1mph /  16.3km/h 79% 0in /  0.0mm
09:53 32.9 °F /  0.5 °C 28.4 °F /  -2.0 °C 30.2in /  1021.9hPa NE 7.8mph /  12.6km/h 10.1mph /  16.3km/h 79% 0in /  0.0mm
09:58 33.3 °F /  0.7 °C 26.6 °F /  -3.0 °C 30.2in /  1021.9hPa NE 6mph /  9.7km/h 10.1mph /  16.3km/h 78% 0in /  0.0mm
10:04 33.4 °F /  0.8 °C 28.4 °F /  -2.0 °C 30.2in /  1021.9hPa ENE 8.1mph /  13.0km/h 10.1mph /  16.3km/h 78% 0in /  0.0mm
10:09 33.6 °F /  0.9 °C 28.4 °F /  -2.0 °C 30.2in /  1021.9hPa NE 7.6mph /  12.2km/h 9.6mph /  15.4km/h 77% 0in /  0.0mm
10:14 34 °F /  1.1 °C 26.6 °F /  -3.0 °C 30.2in /  1021.9hPa ENE 7.6mph /  12.2km/h 9.6mph /  15.4km/h 76% 0in /  0.0mm
10:19 34.2 °F /  1.2 °C 26.6 °F /  -3.0 °C 30.2in /  1021.9hPa ENE 8.1mph /  13.0km/h 8.7mph /  14.0km/h 74% 0in /  0.0mm
10:24 34.5 °F /  1.4 °C 26.6 °F /  -3.0 °C 30.2in /  1021.9hPa ENE 6.3mph /  10.1km/h 10.1mph /  16.3km/h 74% 0in /  0.0mm
10:29 34.7 °F /  1.5 °C 28.4 °F /  -2.0 °C 30.2in /  1021.9hPa NNE 7.6mph /  12.2km/h 12.3mph /  19.8km/h 74% 0in /  0.0mm
10:34 35.1 °F /  1.7 °C 26.6 °F /  -3.0 °C 30.2in /  1021.9hPa NE 7.4mph /  11.9km/h 12.3mph /  19.8km/h 73% 0in /  0.0mm
10:39 35.2 °F /  1.8 °C 26.6 °F /  -3.0 °C 30.2in /  1021.9hPa NE 6.5mph /  10.5km/h 9.6mph /  15.4km/h 72% 0in /  0.0mm
10:44 35.4 °F /  1.9 °C 26.6 °F /  -3.0 °C 30.2in /  1021.9hPa NE 8.7mph /  14.0km/h 13mph /  20.9km/h 70% 0in /  0.0mm
10:49 35.6 °F /  2.0 °C 26.6 °F /  -3.0 °C 30.2in /  1021.9hPa NE 5.6mph /  9.0km/h 13mph /  20.9km/h 69% 0in /  0.0mm
10:54 36 °F /  2.2 °C 26.6 °F /  -3.0 °C 30.2in /  1021.9hPa ENE 4.3mph /  6.9km/h 10.3mph /  16.6km/h 70% 0in /  0.0mm
10:59 36.3 °F /  2.4 °C 26.6 °F /  -3.0 °C 30.2in /  1021.9hPa ENE 7.6mph /  12.2km/h 9.8mph /  15.8km/h 69% 0in /  0.0mm
11:05 36.3 °F /  2.4 °C 26.6 °F /  -3.0 °C 30.2in /  1021.9hPa ENE 9.6mph /  15.4km/h 12.3mph /  19.8km/h 67% 0in /  0.0mm
11:10 36.5 °F /  2.5 °C 26.6 °F /  -3.0 °C 30.2in /  1021.9hPa ENE 9.8mph /  15.8km/h 13mph /  20.9km/h 66% 0in /  0.0mm
11:15 36.7 °F /  2.6 °C 26.6 °F /  -3.0 °C 30.2in /  1021.9hPa ENE 14.8mph /  23.8km/h 14.8mph /  23.8km/h 67% 0in /  0.0mm
11:20 36.9 °F /  2.7 °C 26.6 °F /  -3.0 °C 30.2in /  1021.9hPa NE 8.7mph /  14.0km/h 14.8mph /  23.8km/h 66% 0in /  0.0mm
11:25 37 °F /  2.8 °C 26.6 °F /  -3.0 °C 30.2in /  1021.9hPa ENE 8.5mph /  13.7km/h 14.8mph /  23.8km/h 65% 0in /  0.0mm
11:30 37.4 °F /  3.0 °C 26.6 °F /  -3.0 °C 30.2in /  1021.9hPa NE 7.4mph /  11.9km/h 10.5mph /  16.9km/h 63% 0in /  0.0mm
11:35 37.4 °F /  3.0 °C 26.6 °F /  -3.0 °C 30.2in /  1021.9hPa ENE 7.6mph /  12.2km/h 14.8mph /  23.8km/h 62% 0in /  0.0mm
11:40 37.6 °F /  3.1 °C 26.6 °F /  -3.0 °C 30.2in /  1021.9hPa ENE 8.1mph /  13.0km/h 14.8mph /  23.8km/h 62% 0in /  0.0mm
11:45 37.8 °F /  3.2 °C 26.6 °F /  -3.0 °C 30.2in /  1021.9hPa ENE 10.1mph /  16.3km/h 13mph /  20.9km/h 60% 0in /  0.0mm
11:50 38.1 °F /  3.4 °C 26.6 °F /  -3.0 °C 30.2in /  1021.9hPa ENE 7.8mph /  12.6km/h 13.2mph /  21.2km/h 61% 0in /  0.0mm
11:55 38.5 °F /  3.6 °C 26.6 °F /  -3.0 °C 30.2in /  1021.9hPa NNE 7.6mph /  12.2km/h 13.2mph /  21.2km/h 59% 0in /  0.0mm
12:00 38.7 °F /  3.7 °C 24.8 °F /  -4.0 °C 30.2in /  1021.9hPa East 6.3mph /  10.1km/h 14.3mph /  23.0km/h 58% 0in /  0.0mm
12:05 38.8 °F /  3.8 °C 24.8 °F /  -4.0 °C 30.2in /  1021.9hPa East 8.5mph /  13.7km/h 14.3mph /  23.0km/h 58% 0in /  0.0mm
12:10 39.2 °F /  4.0 °C 26.6 °F /  -3.0 °C 30.2in /  1021.9hPa ESE 8.1mph /  13.0km/h 10.5mph /  16.9km/h 58% 0in /  0.0mm
12:15 39.4 °F /  4.1 °C 24.8 °F /  -4.0 °C 30.2in /  1021.9hPa East 12.5mph /  20.1km/h 13.6mph /  21.9km/h 56% 0in /  0.0mm
12:20 39.7 °F /  4.3 °C 26.6 °F /  -3.0 °C 30.2in /  1021.9hPa East 6mph /  9.7km/h 13.6mph /  21.9km/h 57% 0in /  0.0mm
12:25 39.9 °F /  4.4 °C 24.8 °F /  -4.0 °C 30.2in /  1021.9hPa East 7.6mph /  12.2km/h 12.5mph /  20.1km/h 55% 0in /  0.0mm
12:30 40.1 °F /  4.5 °C 24.8 °F /  -4.0 °C 30.2in /  1021.9hPa East 8.5mph /  13.7km/h 12.3mph /  19.8km/h 55% 0in /  0.0mm
12:35 40.5 °F /  4.7 °C 24.8 °F /  -4.0 °C 30.2in /  1021.9hPa ESE 9.8mph /  15.8km/h 12.1mph /  19.5km/h 55% 0in /  0.0mm
12:40 40.6 °F /  4.8 °C 24.8 °F /  -4.0 °C 30.2in /  1021.9hPa East 7.8mph /  12.6km/h 12.8mph /  20.6km/h 53% 0in /  0.0mm
12:45 40.8 °F /  4.9 °C 24.8 °F /  -4.0 °C 30.2in /  1021.9hPa ENE 7.6mph /  12.2km/h 12.8mph /  20.6km/h 53% 0in /  0.0mm
12:50 41 °F /  5.0 °C 24.8 °F /  -4.0 °C 30.2in /  1021.9hPa NNE 8.5mph /  13.7km/h 10.7mph /  17.2km/h 52% 0in /  0.0mm
12:55 41.4 °F /  5.2 °C 24.8 °F /  -4.0 °C 30.2in /  1021.9hPa ENE 7.4mph /  11.9km/h 12.3mph /  19.8km/h 52% 0in /  0.0mm
13:00 41.5 °F /  5.3 °C 26.6 °F /  -3.0 °C 30.2in /  1020.9hPa East 7.8mph /  12.6km/h 12.3mph /  19.8km/h 52% 0in /  0.0mm
13:05 41.7 °F /  5.4 °C 24.8 °F /  -4.0 °C 30.2in /  1020.9hPa East 8.5mph /  13.7km/h 17.2mph /  27.7km/h 50% 0in /  0.0mm
13:10 41.7 °F /  5.4 °C 24.8 °F /  -4.0 °C 30.2in /  1020.9hPa East 5.6mph /  9.0km/h 17.2mph /  27.7km/h 50% 0in /  0.0mm
13:15 42.3 °F /  5.7 °C 24.8 °F /  -4.0 °C 30.2in /  1020.9hPa East 10.7mph /  17.2km/h 11mph /  17.7km/h 50% 0in /  0.0mm
13:20 42.3 °F /  5.7 °C 24.8 °F /  -4.0 °C 30.2in /  1020.9hPa ENE 7.2mph /  11.6km/h 11mph /  17.7km/h 50% 0in /  0.0mm
13:25 42.3 °F /  5.7 °C 24.8 °F /  -4.0 °C 30.2in /  1020.9hPa East 7.8mph /  12.6km/h 12.1mph /  19.5km/h 49% 0in /  0.0mm
13:30 42.4 °F /  5.8 °C 24.8 °F /  -4.0 °C 30.2in /  1020.9hPa East 9.8mph /  15.8km/h 12.1mph /  19.5km/h 49% 0in /  0.0mm
13:35 42.6 °F /  5.9 °C 24.8 °F /  -4.0 °C 30.2in /  1020.9hPa ENE 10.1mph /  16.3km/h 10.7mph /  17.2km/h 48% 0in /  0.0mm
13:40 42.8 °F /  6.0 °C 24.8 °F /  -4.0 °C 30.2in /  1020.9hPa East 8.7mph /  14.0km/h 12.5mph /  20.1km/h 48% 0in /  0.0mm
13:45 42.6 °F /  5.9 °C 24.8 °F /  -4.0 °C 30.2in /  1020.9hPa ENE 8.7mph /  14.0km/h 13mph /  20.9km/h 47% 0in /  0.0mm
13:51 42.8 °F /  6.0 °C 24.8 °F /  -4.0 °C 30.2in /  1020.9hPa ESE 9.2mph /  14.8km/h 13mph /  20.9km/h 47% 0in /  0.0mm
13:56 43 °F /  6.1 °C 24.8 °F /  -4.0 °C 30.2in /  1020.9hPa East 7.8mph /  12.6km/h 11.2mph /  18.0km/h 47% 0in /  0.0mm
14:01 43.3 °F /  6.3 °C 24.8 °F /  -4.0 °C 30.2in /  1020.9hPa East 6.3mph /  10.1km/h 13mph /  20.9km/h 47% 0in /  0.0mm
14:06 43.3 °F /  6.3 °C 24.8 °F /  -4.0 °C 30.2in /  1020.9hPa ENE 7.6mph /  12.2km/h 13mph /  20.9km/h 47% 0in /  0.0mm
14:11 43 °F /  6.1 °C 23 °F /  -5.0 °C 30.2in /  1020.9hPa ENE 13.2mph /  21.2km/h 17.4mph /  28.0km/h 45% 0in /  0.0mm
14:16 43.2 °F /  6.2 °C 23 °F /  -5.0 °C 30.2in /  1020.9hPa ESE 6.3mph /  10.1km/h 17.4mph /  28.0km/h 45% 0in /  0.0mm
14:21 43.3 °F /  6.3 °C 24.8 °F /  -4.0 °C 30.2in /  1020.9hPa NE 10.1mph /  16.3km/h 13mph /  20.9km/h 46% 0in /  0.0mm
14:26 43.2 °F /  6.2 °C 23 °F /  -5.0 °C 30.2in /  1020.9hPa NE 13.6mph /  21.9km/h 19.2mph /  30.9km/h 45% 0in /  0.0mm
14:31 43 °F /  6.1 °C 23 °F /  -5.0 °C 30.1in /  1019.9hPa East 13.2mph /  21.2km/h 19.5mph /  31.4km/h 44% 0in /  0.0mm
14:36 43 °F /  6.1 °C 23 °F /  -5.0 °C 30.1in /  1019.9hPa NNE 12.5mph /  20.1km/h 19.5mph /  31.4km/h 45% 0in /  0.0mm
14:41 43 °F /  6.1 °C 23 °F /  -5.0 °C 30.1in /  1019.9hPa ENE 12.3mph /  19.8km/h 15.7mph /  25.3km/h 45% 0in /  0.0mm
14:46 42.8 °F /  6.0 °C 23 °F /  -5.0 °C 30.2in /  1020.9hPa ENE 10.5mph /  16.9km/h 13.2mph /  21.2km/h 45% 0in /  0.0mm
14:51 43.2 °F /  6.2 °C 23 °F /  -5.0 °C 30.2in /  1020.9hPa ENE 8.7mph /  14.0km/h 13.2mph /  21.2km/h 45% 0in /  0.0mm
14:56 43.2 °F /  6.2 °C 23 °F /  -5.0 °C 30.2in /  1020.9hPa ENE 10.1mph /  16.3km/h 12.8mph /  20.6km/h 45% 0in /  0.0mm
15:01 43.3 °F /  6.3 °C 23 °F /  -5.0 °C 30.2in /  1020.9hPa NE 9.2mph /  14.8km/h 12.3mph /  19.8km/h 45% 0in /  0.0mm
15:06 43.3 °F /  6.3 °C 24.8 °F /  -4.0 °C 30.2in /  1020.9hPa NNE 11.2mph /  18.0km/h 13mph /  20.9km/h 46% 0in /  0.0mm
15:11 43.3 °F /  6.3 °C 23 °F /  -5.0 °C 30.2in /  1020.9hPa NE 13mph /  20.9km/h 15.4mph /  24.8km/h 44% 0in /  0.0mm
15:16 43.2 °F /  6.2 °C 23 °F /  -5.0 °C 30.2in /  1020.9hPa East 10.3mph /  16.6km/h 15.4mph /  24.8km/h 44% 0in /  0.0mm
15:21 43.2 °F /  6.2 °C 23 °F /  -5.0 °C 30.2in /  1020.9hPa NE 10.5mph /  16.9km/h 15.2mph /  24.5km/h 44% 0in /  0.0mm
15:26 43.2 °F /  6.2 °C 23 °F /  -5.0 °C 30.2in /  1020.9hPa ENE 8.1mph /  13.0km/h 15.2mph /  24.5km/h 44% 0in /  0.0mm
15:31 43.5 °F /  6.4 °C 23 °F /  -5.0 °C 30.2in /  1020.9hPa ENE 10.7mph /  17.2km/h 12.5mph /  20.1km/h 45% 0in /  0.0mm
15:36 43.5 °F /  6.4 °C 23 °F /  -5.0 °C 30.2in /  1020.9hPa NE 10.1mph /  16.3km/h 13.2mph /  21.2km/h 45% 0in /  0.0mm
15:42 43.3 °F /  6.3 °C 23 °F /  -5.0 °C 30.2in /  1020.9hPa ENE 12.5mph /  20.1km/h 19.5mph /  31.4km/h 43% 0in /  0.0mm
15:47 43.3 °F /  6.3 °C 23 °F /  -5.0 °C 30.1in /  1019.9hPa ENE 6.3mph /  10.1km/h 19.5mph /  31.4km/h 44% 0in /  0.0mm
15:52 43.5 °F /  6.4 °C 23 °F /  -5.0 °C 30.1in /  1019.9hPa ENE 8.7mph /  14.0km/h 15.2mph /  24.5km/h 44% 0in /  0.0mm
15:57 43.5 °F /  6.4 °C 23 °F /  -5.0 °C 30.1in /  1019.9hPa ENE 15.4mph /  24.8km/h 17.7mph /  28.5km/h 44% 0in /  0.0mm
16:02 43.2 °F /  6.2 °C 23 °F /  -5.0 °C 30.1in /  1019.9hPa ENE 10.7mph /  17.2km/h 17.7mph /  28.5km/h 43% 0in /  0.0mm
16:07 43 °F /  6.1 °C 23 °F /  -5.0 °C 30.1in /  1019.9hPa NE 8.7mph /  14.0km/h 15.2mph /  24.5km/h 44% 0in /  0.0mm
16:12 43 °F /  6.1 °C 23 °F /  -5.0 °C 30.1in /  1019.9hPa NE 8.5mph /  13.7km/h 15.2mph /  24.5km/h 45% 0in /  0.0mm
16:17 42.6 °F /  5.9 °C 23 °F /  -5.0 °C 30.1in /  1019.9hPa NNE 18.6mph /  29.9km/h 18.6mph /  29.9km/h 44% 0in /  0.0mm
16:22 42.4 °F /  5.8 °C 23 °F /  -5.0 °C 30.1in /  1019.9hPa NE 10.7mph /  17.2km/h 18.6mph /  29.9km/h 45% 0in /  0.0mm
16:27 42.4 °F /  5.8 °C 23 °F /  -5.0 °C 30.1in /  1019.9hPa NE 14.3mph /  23.0km/h 19.5mph /  31.4km/h 45% 0in /  0.0mm
16:32 42.3 °F /  5.7 °C 23 °F /  -5.0 °C 30.1in /  1019.9hPa NE 9.8mph /  15.8km/h 19.5mph /  31.4km/h 45% 0in /  0.0mm
16:37 42.1 °F /  5.6 °C 23 °F /  -5.0 °C 30.1in /  1019.9hPa NE 10.3mph /  16.6km/h 17.4mph /  28.0km/h 47% 0in /  0.0mm
16:42 41.7 °F /  5.4 °C 23 °F /  -5.0 °C 30.1in /  1019.9hPa NE 13.2mph /  21.2km/h 15.9mph /  25.6km/h 47% 0in /  0.0mm
16:47 41.5 °F /  5.3 °C 23 °F /  -5.0 °C 30.1in /  1019.9hPa NE 12.5mph /  20.1km/h 15.9mph /  25.6km/h 48% 0in /  0.0mm
16:52 41.5 °F /  5.3 °C 24.8 °F /  -4.0 °C 30.1in /  1019.9hPa NE 12.1mph /  19.5km/h 16.1mph /  25.9km/h 49% 0in /  0.0mm
16:57 41.4 °F /  5.2 °C 23 °F /  -5.0 °C 30.1in /  1019.9hPa ENE 10.7mph /  17.2km/h 15.2mph /  24.5km/h 49% 0in /  0.0mm
17:02 41.2 °F /  5.1 °C 23 °F /  -5.0 °C 30.1in /  1019.9hPa NE 12.5mph /  20.1km/h 15.4mph /  24.8km/h 48% 0in /  0.0mm
17:07 41.2 °F /  5.1 °C 23 °F /  -5.0 °C 30.1in /  1019.9hPa NE 11mph /  17.7km/h 16.8mph /  27.0km/h 48% 0in /  0.0mm
17:12 41 °F /  5.0 °C 23 °F /  -5.0 °C 30.1in /  1019.9hPa NE 9.6mph /  15.4km/h 16.8mph /  27.0km/h 48% 0in /  0.0mm
17:17 40.8 °F /  4.9 °C 23 °F /  -5.0 °C 30.1in /  1018.8hPa NNE 11mph /  17.7km/h 16.6mph /  26.7km/h 49% 0in /  0.0mm
17:23 40.6 °F /  4.8 °C 23 °F /  -5.0 °C 30.1in /  1018.8hPa NNE 12.5mph /  20.1km/h 18.1mph /  29.1km/h 49% 0in /  0.0mm
17:28 40.5 °F /  4.7 °C 23 °F /  -5.0 °C 30.1in /  1018.8hPa NE 12.3mph /  19.8km/h 18.1mph /  29.1km/h 49% 0in /  0.0mm
17:33 40.3 °F /  4.6 °C 23 °F /  -5.0 °C 30.1in /  1019.9hPa NE 9.8mph /  15.8km/h 16.6mph /  26.7km/h 49% 0in /  0.0mm
17:38 40.3 °F /  4.6 °C 23 °F /  -5.0 °C 30.1in /  1019.9hPa ENE 8.9mph /  14.3km/h 15.7mph /  25.3km/h 50% 0in /  0.0mm
17:43 39.9 °F /  4.4 °C 23 °F /  -5.0 °C 30.1in /  1019.9hPa NNE 9.6mph /  15.4km/h 13mph /  20.9km/h 51% 0in /  0.0mm
17:48 39.7 °F /  4.3 °C 23 °F /  -5.0 °C 30.1in /  1019.9hPa NNE 9.8mph /  15.8km/h 13mph /  20.9km/h 51% 0in /  0.0mm
17:53 39.4 °F /  4.1 °C 23 °F /  -5.0 °C 30.1in /  1019.9hPa NNE 9.4mph /  15.1km/h 12.8mph /  20.6km/h 52% 0in /  0.0mm
17:58 38.8 °F /  3.8 °C 23 °F /  -5.0 °C 30.1in /  1019.9hPa NE 10.3mph /  16.6km/h 12.8mph /  20.6km/h 55% 0in /  0.0mm
18:03 38.5 °F /  3.6 °C 24.8 °F /  -4.0 °C 30.1in /  1019.9hPa NE 8.5mph /  13.7km/h 12.3mph /  19.8km/h 57% 0in /  0.0mm
18:08 38.1 °F /  3.4 °C 24.8 °F /  -4.0 °C 30.1in /  1019.9hPa NNE 9.2mph /  14.8km/h 13.2mph /  21.2km/h 58% 0in /  0.0mm
18:13 37.9 °F /  3.3 °C 24.8 °F /  -4.0 °C 30.1in /  1019.9hPa NE 8.5mph /  13.7km/h 13.2mph /  21.2km/h 59% 0in /  0.0mm
18:18 37.8 °F /  3.2 °C 26.6 °F /  -3.0 °C 30.1in /  1018.8hPa ENE 10.7mph /  17.2km/h 17mph /  27.4km/h 60% 0in /  0.0mm
18:23 37.6 °F /  3.1 °C 24.8 °F /  -4.0 °C 30.1in /  1018.8hPa NE 12.5mph /  20.1km/h 17mph /  27.4km/h 61% 0in /  0.0mm
18:28 37.4 °F /  3.0 °C 26.6 °F /  -3.0 °C 30.1in /  1018.8hPa NE 10.1mph /  16.3km/h 12.8mph /  20.6km/h 62% 0in /  0.0mm
18:33 37 °F /  2.8 °C 26.6 °F /  -3.0 °C 30.1in /  1019.9hPa NNE 11.2mph /  18.0km/h 12.5mph /  20.1km/h 63% 0in /  0.0mm
18:38 37 °F /  2.8 °C 26.6 °F /  -3.0 °C 30.1in /  1019.9hPa NE 8.5mph /  13.7km/h 12.5mph /  20.1km/h 63% 0in /  0.0mm
18:43 36.9 °F /  2.7 °C 26.6 °F /  -3.0 °C 30.1in /  1019.9hPa NE 7.2mph /  11.6km/h 10.5mph /  16.9km/h 63% 0in /  0.0mm
18:48 36.7 °F /  2.6 °C 26.6 °F /  -3.0 °C 30.1in /  1019.9hPa NE 10.1mph /  16.3km/h 13.2mph /  21.2km/h 63% 0in /  0.0mm
18:53 36.7 °F /  2.6 °C 26.6 °F /  -3.0 °C 30.1in /  1019.9hPa NNE 10.1mph /  16.3km/h 13.2mph /  21.2km/h 63% 0in /  0.0mm
18:58 36.5 °F /  2.5 °C 24.8 °F /  -4.0 °C 30.1in /  1019.9hPa NE 9.2mph /  14.8km/h 12.8mph /  20.6km/h 62% 0in /  0.0mm
19:03 36.3 °F /  2.4 °C 24.8 °F /  -4.0 °C 30.1in /  1019.9hPa NE 7.6mph /  12.2km/h 12.8mph /  20.6km/h 62% 0in /  0.0mm
19:08 36.3 °F /  2.4 °C 24.8 °F /  -4.0 °C 30.1in /  1019.9hPa NE 10.1mph /  16.3km/h 12.5mph /  20.1km/h 62% 0in /  0.0mm
19:13 36.3 °F /  2.4 °C 24.8 °F /  -4.0 °C 30.1in /  1019.9hPa NE 7.4mph /  11.9km/h 12.3mph /  19.8km/h 62% 0in /  0.0mm
19:18 36.1 °F /  2.3 °C 24.8 °F /  -4.0 °C 30.1in /  1019.9hPa NE 7.4mph /  11.9km/h 10.5mph /  16.9km/h 63% 0in /  0.0mm
19:23 36.1 °F /  2.3 °C 24.8 °F /  -4.0 °C 30.1in /  1019.9hPa ENE 12.8mph /  20.6km/h 12.8mph /  20.6km/h 63% 0in /  0.0mm
19:28 36.1 °F /  2.3 °C 24.8 °F /  -4.0 °C 30.1in /  1019.9hPa NE 13mph /  20.9km/h 13mph /  20.9km/h 62% 0in /  0.0mm
19:33 36.3 °F /  2.4 °C 24.8 °F /  -4.0 °C 30.1in /  1018.8hPa NE 7.8mph /  12.6km/h 13.2mph /  21.2km/h 62% 0in /  0.0mm
19:38 36.3 °F /  2.4 °C 24.8 °F /  -4.0 °C 30.1in /  1018.8hPa NNE 8.7mph /  14.0km/h 14.3mph /  23.0km/h 62% 0in /  0.0mm
19:43 36.1 °F /  2.3 °C 24.8 °F /  -4.0 °C 30.1in /  1018.8hPa ENE 7.6mph /  12.2km/h 14.3mph /  23.0km/h 62% 0in /  0.0mm
19:48 36.1 °F /  2.3 °C 24.8 °F /  -4.0 °C 30.1in /  1019.9hPa NE 10.3mph /  16.6km/h 14.1mph /  22.7km/h 62% 0in /  0.0mm
19:53 36.1 °F /  2.3 °C 24.8 °F /  -4.0 °C 30.1in /  1019.9hPa ENE 11mph /  17.7km/h 15.4mph /  24.8km/h 61% 0in /  0.0mm
19:59 36.1 °F /  2.3 °C 24.8 °F /  -4.0 °C 30.1in /  1019.9hPa ENE 9.8mph /  15.8km/h 15.4mph /  24.8km/h 62% 0in /  0.0mm
20:04 36.1 °F /  2.3 °C 24.8 °F /  -4.0 °C 30.1in /  1019.9hPa ENE 8.7mph /  14.0km/h 15.2mph /  24.5km/h 62% 0in /  0.0mm
20:09 36 °F /  2.2 °C 24.8 °F /  -4.0 °C 30.1in /  1019.9hPa NE 9.6mph /  15.4km/h 15.2mph /  24.5km/h 62% 0in /  0.0mm
20:14 36 °F /  2.2 °C 24.8 °F /  -4.0 °C 30.1in /  1019.9hPa ENE 7.8mph /  12.6km/h 14.8mph /  23.8km/h 62% 0in /  0.0mm
20:19 35.8 °F /  2.1 °C 24.8 °F /  -4.0 °C 30.1in /  1019.9hPa NE 8.1mph /  13.0km/h 14.8mph /  23.8km/h 62% 0in /  0.0mm
20:24 35.8 °F /  2.1 °C 24.8 °F /  -4.0 °C 30.1in /  1019.9hPa NE 11mph /  17.7km/h 12.5mph /  20.1km/h 63% 0in /  0.0mm
20:29 35.6 °F /  2.0 °C 24.8 °F /  -4.0 °C 30.1in /  1019.9hPa ENE 10.3mph /  16.6km/h 12.5mph /  20.1km/h 63% 0in /  0.0mm
20:34 35.4 °F /  1.9 °C 24.8 °F /  -4.0 °C 30.1in /  1019.9hPa NE 8.5mph /  13.7km/h 11.9mph /  19.1km/h 64% 0in /  0.0mm
20:39 35.2 °F /  1.8 °C 24.8 °F /  -4.0 °C 30.1in /  1019.9hPa NE 6.5mph /  10.5km/h 10.3mph /  16.6km/h 65% 0in /  0.0mm
20:44 35.1 °F /  1.7 °C 24.8 °F /  -4.0 °C 30.1in /  1019.9hPa NE 6.5mph /  10.5km/h 9.8mph /  15.8km/h 65% 0in /  0.0mm
20:49 35.1 °F /  1.7 °C 24.8 °F /  -4.0 °C 30.1in /  1019.9hPa NE 8.7mph /  14.0km/h 9.8mph /  15.8km/h 65% 0in /  0.0mm
20:54 35.1 °F /  1.7 °C 24.8 °F /  -4.0 °C 30.1in /  1019.9hPa NE 8.1mph /  13.0km/h 9.6mph /  15.4km/h 66% 0in /  0.0mm
20:59 34.9 °F /  1.6 °C 24.8 °F /  -4.0 °C 30.1in /  1019.9hPa NE 3.8mph /  6.1km/h 8.7mph /  14.0km/h 66% 0in /  0.0mm
21:04 34.3 °F /  1.3 °C 24.8 °F /  -4.0 °C 30.1in /  1019.9hPa NNE 6mph /  9.7km/h 8.1mph /  13.0km/h 66% 0in /  0.0mm
21:09 34.3 °F /  1.3 °C 24.8 °F /  -4.0 °C 30.1in /  1019.9hPa NE 7.6mph /  12.2km/h 8.9mph /  14.3km/h 68% 0in /  0.0mm
21:14 34.3 °F /  1.3 °C 24.8 °F /  -4.0 °C 30.1in /  1019.9hPa NE 5.8mph /  9.3km/h 11.9mph /  19.1km/h 68% 0in /  0.0mm
21:19 34.5 °F /  1.4 °C 24.8 °F /  -4.0 °C 30.1in /  1019.9hPa NNE 8.9mph /  14.3km/h 11.9mph /  19.1km/h 69% 0in /  0.0mm
21:24 34.3 °F /  1.3 °C 24.8 °F /  -4.0 °C 30.1in /  1019.9hPa North 8.1mph /  13.0km/h 12.1mph /  19.5km/h 68% 0in /  0.0mm
21:29 34.5 °F /  1.4 °C 24.8 °F /  -4.0 °C 30.1in /  1019.9hPa NE 8.7mph /  14.0km/h 12.1mph /  19.5km/h 68% 0in /  0.0mm
21:34 34.5 °F /  1.4 °C 24.8 °F /  -4.0 °C 30.1in /  1019.9hPa East 10.1mph /  16.3km/h 13.2mph /  21.2km/h 68% 0in /  0.0mm
21:39 34.5 °F /  1.4 °C 24.8 °F /  -4.0 °C 30.1in /  1019.9hPa NE 10.5mph /  16.9km/h 13.2mph /  21.2km/h 67% 0in /  0.0mm
21:44 34.3 °F /  1.3 °C 24.8 °F /  -4.0 °C 30.2in /  1020.9hPa NE 8.7mph /  14.0km/h 11.9mph /  19.1km/h 67% 0in /  0.0mm
21:49 34.3 °F /  1.3 °C 24.8 °F /  -4.0 °C 30.2in /  1020.9hPa East 10.1mph /  16.3km/h 11mph /  17.7km/h 67% 0in /  0.0mm
21:54 34.3 °F /  1.3 °C 24.8 °F /  -4.0 °C 30.2in /  1020.9hPa ENE 10.7mph /  17.2km/h 11mph /  17.7km/h 67% 0in /  0.0mm
21:59 34.3 °F /  1.3 °C 24.8 °F /  -4.0 °C 30.2in /  1020.9hPa NE 7.8mph /  12.6km/h 11mph /  17.7km/h 67% 0in /  0.0mm
22:05 34.3 °F /  1.3 °C 24.8 °F /  -4.0 °C 30.2in /  1020.9hPa NE 7.6mph /  12.2km/h 11mph /  17.7km/h 67% 0in /  0.0mm
22:10 34.3 °F /  1.3 °C 24.8 °F /  -4.0 °C 30.2in /  1020.9hPa ENE 8.1mph /  13.0km/h 11mph /  17.7km/h 66% 0in /  0.0mm
22:15 34.3 °F /  1.3 °C 24.8 °F /  -4.0 °C 30.2in /  1020.9hPa ENE 6.3mph /  10.1km/h 10.7mph /  17.2km/h 66% 0in /  0.0mm
22:20 34.2 °F /  1.2 °C 24.8 °F /  -4.0 °C 30.2in /  1020.9hPa NE 8.1mph /  13.0km/h 12.1mph /  19.5km/h 66% 0in /  0.0mm
22:25 34.2 °F /  1.2 °C 24.8 °F /  -4.0 °C 30.2in /  1020.9hPa East 10.1mph /  16.3km/h 12.1mph /  19.5km/h 66% 0in /  0.0mm
22:30 34.2 °F /  1.2 °C 24.8 °F /  -4.0 °C 30.2in /  1020.9hPa NE 8.1mph /  13.0km/h 12.1mph /  19.5km/h 66% 0in /  0.0mm
22:35 34 °F /  1.1 °C 23 °F /  -5.0 °C 30.2in /  1020.9hPa NE 10.7mph /  17.2km/h 10.7mph /  17.2km/h 66% 0in /  0.0mm
22:40 34 °F /  1.1 °C 23 °F /  -5.0 °C 30.2in /  1020.9hPa NE 7.8mph /  12.6km/h 10.7mph /  17.2km/h 66% 0in /  0.0mm
22:45 34 °F /  1.1 °C 23 °F /  -5.0 °C 30.2in /  1020.9hPa ENE 6.3mph /  10.1km/h 12.3mph /  19.8km/h 66% 0in /  0.0mm
22:50 33.8 °F /  1.0 °C 23 °F /  -5.0 °C 30.2in /  1020.9hPa ENE 6.5mph /  10.5km/h 12.3mph /  19.8km/h 66% 0in /  0.0mm
22:55 33.8 °F /  1.0 °C 24.8 °F /  -4.0 °C 30.2in /  1020.9hPa ENE 8.5mph /  13.7km/h 11mph /  17.7km/h 67% 0in /  0.0mm
23:00 33.6 °F /  0.9 °C 24.8 °F /  -4.0 °C 30.2in /  1020.9hPa NE 5.4mph /  8.7km/h 12.1mph /  19.5km/h 67% 0in /  0.0mm
23:05 33.6 °F /  0.9 °C 24.8 °F /  -4.0 °C 30.2in /  1020.9hPa ENE 8.7mph /  14.0km/h 12.1mph /  19.5km/h 67% 0in /  0.0mm
23:10 33.6 °F /  0.9 °C 24.8 °F /  -4.0 °C 30.2in /  1020.9hPa NE 8.1mph /  13.0km/h 12.1mph /  19.5km/h 67% 0in /  0.0mm
23:15 33.4 °F /  0.8 °C 24.8 °F /  -4.0 °C 30.2in /  1020.9hPa ENE 7.4mph /  11.9km/h 10.3mph /  16.6km/h 67% 0in /  0.0mm
23:20 33.4 °F /  0.8 °C 24.8 °F /  -4.0 °C 30.2in /  1020.9hPa ENE 7.4mph /  11.9km/h 9.2mph /  14.8km/h 67% 0in /  0.0mm
23:25 33.4 °F /  0.8 °C 24.8 °F /  -4.0 °C 30.2in /  1020.9hPa ENE 6mph /  9.7km/h 7.4mph /  11.9km/h 67% 0in /  0.0mm
23:30 33.4 °F /  0.8 °C 24.8 °F /  -4.0 °C 30.2in /  1020.9hPa ENE 7.8mph /  12.6km/h 12.1mph /  19.5km/h 67% 0in /  0.0mm
23:35 33.4 °F /  0.8 °C 24.8 °F /  -4.0 °C 30.2in /  1020.9hPa ENE 8.5mph /  13.7km/h 12.1mph /  19.5km/h 67% 0in /  0.0mm
23:40 33.3 °F /  0.7 °C 23 °F /  -5.0 °C 30.2in /  1020.9hPa East 7.8mph /  12.6km/h 11.4mph /  18.3km/h 67% 0in /  0.0mm
23:45 33.1 °F /  0.6 °C 24.8 °F /  -4.0 °C 30.2in /  1020.9hPa ENE 6.5mph /  10.5km/h 11.4mph /  18.3km/h 68% 0in /  0.0mm
23:50 33.1 °F /  0.6 °C 24.8 °F /  -4.0 °C 30.2in /  1020.9hPa NE 6.5mph /  10.5km/h 9.8mph /  15.8km/h 68% 0in /  0.0mm
23:56 32.9 °F /  0.5 °C 24.8 °F /  -4.0 °C 30.2in /  1020.9hPa ENE 4.9mph /  7.9km/h 8.9mph /  14.3km/h 68% 0in /  0.0mm
Données Historique de Météo Turbie

Mise a jour : 23/06/2018 12:15:18
Généré par Cumulus 1.9.4 (1099)